createdAt,value
2018-09-30T00:00:08.321Z,0
2018-09-30T00:01:08.053Z,0
2018-09-30T00:02:08.043Z,0
2018-09-30T00:03:08.283Z,0
2018-09-30T00:04:08.023Z,0
2018-09-30T00:05:08.512Z,0
2018-09-30T00:06:08.503Z,0
2018-09-30T00:07:08.236Z,0
2018-09-30T00:08:08.221Z,0
2018-09-30T00:09:08.205Z,0
2018-09-30T00:10:07.955Z,0
2018-09-30T00:11:08.187Z,0
2018-09-30T00:12:07.667Z,0
2018-09-30T00:13:08.415Z,0
2018-09-30T00:14:08.149Z,0
2018-09-30T00:15:07.373Z,0
2018-09-30T00:16:08.394Z,0
2018-09-30T00:17:08.106Z,0
2018-09-30T00:18:07.847Z,0
2018-09-30T00:19:08.096Z,0
2018-09-30T00:20:08.077Z,0
2018-09-30T00:21:08.068Z,0
2018-09-30T00:22:08.316Z,0
2018-09-30T00:23:08.040Z,0
2018-09-30T00:24:07.511Z,0
2018-09-30T00:25:07.755Z,0
2018-09-30T00:26:07.996Z,0
2018-09-30T00:27:08.230Z,0
2018-09-30T00:28:07.973Z,0
2018-09-30T00:29:08.214Z,0
2018-09-30T00:30:07.948Z,0
2018-09-30T00:31:08.074Z,0
2018-09-30T00:32:07.950Z,0
2018-09-30T00:33:07.908Z,0
2018-09-30T00:34:08.144Z,0
2018-09-30T00:35:07.881Z,0
2018-09-30T00:36:07.953Z,0
2018-09-30T00:37:07.869Z,0
2018-09-30T00:38:07.844Z,0
2018-09-30T00:39:07.829Z,0
2018-09-30T00:40:07.816Z,0
2018-09-30T00:41:07.806Z,0
2018-09-30T00:42:08.056Z,0
2018-09-30T00:43:08.035Z,0
2018-09-30T00:44:07.514Z,0
2018-09-30T00:45:07.504Z,0
2018-09-30T00:46:07.490Z,0
2018-09-30T00:47:07.985Z,0
2018-09-30T00:48:07.466Z,0
2018-09-30T00:49:07.959Z,0
2018-09-30T00:50:07.700Z,0
2018-09-30T00:51:07.174Z,0
2018-09-30T00:52:07.916Z,0
2018-09-30T00:53:07.900Z,0
2018-09-30T00:54:07.888Z,0
2018-09-30T00:55:07.875Z,0
2018-09-30T00:56:07.609Z,0
2018-09-30T00:57:07.849Z,0
2018-09-30T00:58:07.339Z,0
2018-09-30T00:59:07.586Z,0
2018-09-30T01:00:13.578Z,0
2018-09-30T01:01:14.063Z,0
2018-09-30T01:02:07.537Z,0
2018-09-30T01:03:07.775Z,0
2018-09-30T01:04:07.262Z,0
2018-09-30T01:05:07.496Z,0
2018-09-30T01:06:07.748Z,0
2018-09-30T01:07:07.725Z,0
2018-09-30T01:08:07.713Z,0
2018-09-30T01:09:07.444Z,0
2018-09-30T01:10:07.431Z,0
2018-09-30T01:11:07.684Z,0
2018-09-30T01:12:07.415Z,0
2018-09-30T01:13:07.648Z,0
2018-09-30T01:14:07.694Z,0
2018-09-30T01:15:07.627Z,0
2018-09-30T01:16:07.110Z,0
2018-09-30T01:17:07.342Z,0
2018-09-30T01:18:07.079Z,0
2018-09-30T01:19:07.331Z,0
2018-09-30T01:20:07.313Z,0
2018-09-30T01:21:07.293Z,0
2018-09-30T01:22:07.289Z,0
2018-09-30T01:23:07.267Z,0
2018-09-30T01:24:07.510Z,0
2018-09-30T01:25:07.496Z,0
2018-09-30T01:26:07.488Z,0
2018-09-30T01:27:07.473Z,0
2018-09-30T01:28:07.463Z,0
2018-09-30T01:29:07.440Z,0
2018-09-30T01:30:06.934Z,0
2018-09-30T01:31:07.175Z,0
2018-09-30T01:32:07.411Z,0
2018-09-30T01:33:07.391Z,0
2018-09-30T01:34:07.380Z,0
2018-09-30T01:35:07.367Z,0
2018-09-30T01:36:07.350Z,0
2018-09-30T01:37:07.088Z,0
2018-09-30T01:38:07.328Z,0
2018-09-30T01:39:07.059Z,0
2018-09-30T01:40:06.795Z,0
2018-09-30T01:41:07.286Z,0
2018-09-30T01:42:07.027Z,0
2018-09-30T01:43:07.259Z,0
2018-09-30T01:44:07.250Z,0
2018-09-30T01:45:06.985Z,0
2018-09-30T01:46:06.972Z,0
2018-09-30T01:47:07.218Z,0
2018-09-30T01:48:07.196Z,0
2018-09-30T01:49:06.938Z,0
2018-09-30T01:50:06.668Z,0
2018-09-30T01:51:07.163Z,0
2018-09-30T01:52:06.896Z,0
2018-09-30T01:53:06.879Z,0
2018-09-30T01:54:06.623Z,0
2018-09-30T01:55:06.866Z,0
2018-09-30T01:56:06.596Z,0
2018-09-30T01:57:06.831Z,0
2018-09-30T01:58:07.073Z,0
2018-09-30T01:59:06.802Z,0
2018-09-30T02:00:07.043Z,0
2018-09-30T02:01:06.523Z,0
2018-09-30T02:02:07.021Z,0
2018-09-30T02:03:07.014Z,0
2018-09-30T02:04:06.735Z,0
2018-09-30T02:05:06.723Z,0
2018-09-30T02:06:06.970Z,0
2018-09-30T02:07:06.954Z,0
2018-09-30T02:08:06.432Z,0
2018-09-30T02:09:06.933Z,0
2018-09-30T02:10:06.914Z,0
2018-09-30T02:11:06.646Z,0
2018-09-30T02:12:06.380Z,0
2018-09-30T02:13:06.873Z,0
2018-09-30T02:14:06.107Z,0
2018-09-30T02:15:06.858Z,0
2018-09-30T02:16:06.585Z,0
2018-09-30T02:17:06.316Z,0
2018-09-30T02:18:06.558Z,0
2018-09-30T02:19:06.593Z,0
2018-09-30T02:20:06.794Z,0
2018-09-30T02:21:06.516Z,0
2018-09-30T02:22:06.506Z,0
2018-09-30T02:23:06.492Z,0
2018-09-30T02:24:06.479Z,0
2018-09-30T02:25:06.714Z,0
2018-09-30T02:26:06.456Z,0
2018-09-30T02:27:06.701Z,0
2018-09-30T02:28:06.423Z,0
2018-09-30T02:29:06.413Z,0
2018-09-30T02:30:06.656Z,0
2018-09-30T02:31:06.658Z,0
2018-09-30T02:32:06.633Z,0
2018-09-30T02:33:06.123Z,0
2018-09-30T02:34:06.363Z,0
2018-09-30T02:35:06.337Z,0
2018-09-30T02:36:06.575Z,0
2018-09-30T02:37:06.566Z,0
2018-09-30T02:38:06.367Z,0
2018-09-30T02:39:06.282Z,0
2018-09-30T02:40:06.279Z,0
2018-09-30T02:41:06.277Z,0
2018-09-30T02:42:05.998Z,0
2018-09-30T02:43:06.484Z,0
2018-09-30T02:44:05.967Z,0
2018-09-30T02:45:06.205Z,0
2018-09-30T02:46:06.187Z,0
2018-09-30T02:47:06.183Z,0
2018-09-30T02:48:06.424Z,0
2018-09-30T02:49:06.180Z,0
2018-09-30T02:50:05.898Z,0
2018-09-30T02:51:06.378Z,0
2018-09-30T02:52:06.112Z,0
2018-09-30T02:53:06.097Z,0
2018-09-30T02:54:06.101Z,0
2018-09-30T02:55:06.343Z,0
2018-09-30T02:56:06.341Z,0
2018-09-30T02:57:06.305Z,0
2018-09-30T02:58:05.779Z,0
2018-09-30T02:59:06.018Z,0
2018-09-30T03:00:06.261Z,0
2018-09-30T03:01:06.249Z,0
2018-09-30T03:02:06.231Z,0
2018-09-30T03:03:06.221Z,0
2018-09-30T03:04:05.962Z,0
2018-09-30T03:05:06.208Z,0
2018-09-30T03:06:06.179Z,0
2018-09-30T03:07:05.911Z,0
2018-09-30T03:08:06.153Z,0
2018-09-30T03:09:05.889Z,0
2018-09-30T03:10:05.875Z,0
2018-09-30T03:11:05.876Z,0
2018-09-30T03:12:05.856Z,0
2018-09-30T03:13:05.579Z,0
2018-09-30T03:14:05.577Z,0
2018-09-30T03:15:06.073Z,0
2018-09-30T03:16:05.806Z,0
2018-09-30T03:17:06.034Z,0
2018-09-30T03:18:06.014Z,0
2018-09-30T03:19:05.751Z,0
2018-09-30T03:20:05.738Z,0
2018-09-30T03:21:05.985Z,0
2018-09-30T03:22:05.461Z,0
2018-09-30T03:23:05.707Z,0
2018-09-30T03:24:05.692Z,0
2018-09-30T03:25:05.682Z,0
2018-09-30T03:26:05.657Z,0
2018-09-30T03:27:05.928Z,0
2018-09-30T03:28:05.647Z,0
2018-09-30T03:29:05.872Z,0
2018-09-30T03:30:05.101Z,0
2018-09-30T03:31:05.595Z,0
2018-09-30T03:32:05.336Z,0
2018-09-30T03:33:05.824Z,0
2018-09-30T03:34:05.313Z,0
2018-09-30T03:35:05.548Z,0
2018-09-30T03:36:05.793Z,0
2018-09-30T03:37:05.513Z,0
2018-09-30T03:38:05.755Z,0
2018-09-30T03:39:05.743Z,0
2018-09-30T03:40:05.228Z,0
2018-09-30T03:41:05.468Z,0
2018-09-30T03:42:05.699Z,0
2018-09-30T03:43:04.928Z,0
2018-09-30T03:44:05.426Z,0
2018-09-30T03:45:05.418Z,0
2018-09-30T03:46:05.652Z,0
2018-09-30T03:47:05.390Z,0
2018-09-30T03:48:05.621Z,0
2018-09-30T03:49:05.351Z,0
2018-09-30T03:50:05.344Z,0
2018-09-30T03:51:05.334Z,0
2018-09-30T03:52:05.313Z,0
2018-09-30T03:53:05.565Z,0
2018-09-30T03:54:05.082Z,0
2018-09-30T03:55:05.546Z,0
2018-09-30T03:56:05.260Z,0
2018-09-30T03:57:05.594Z,0
2018-09-30T03:58:05.498Z,0
2018-09-30T03:59:05.524Z,0
2018-09-30T04:00:04.956Z,0
2018-09-30T04:01:05.482Z,0
2018-09-30T04:02:04.676Z,0
2018-09-30T04:03:04.915Z,0
2018-09-30T04:04:04.898Z,0
2018-09-30T04:05:05.144Z,0
2018-09-30T04:06:04.872Z,0
2018-09-30T04:07:05.113Z,0
2018-09-30T04:08:05.102Z,0
2018-09-30T04:09:04.836Z,0
2018-09-30T04:10:05.477Z,0
2018-09-30T04:11:04.817Z,0
2018-09-30T04:12:05.079Z,0
2018-09-30T04:13:04.777Z,0
2018-09-30T04:14:05.277Z,0
2018-09-30T04:15:05.007Z,0
2018-09-30T04:16:04.996Z,0
2018-09-30T04:17:06.167Z,0
2018-09-30T04:18:04.715Z,0
2018-09-30T04:19:04.955Z,0
2018-09-30T04:20:04.940Z,0
2018-09-30T04:21:05.182Z,0
2018-09-30T04:22:04.665Z,0
2018-09-30T04:23:05.155Z,0
2018-09-30T04:24:04.884Z,0
2018-09-30T04:25:04.625Z,0
2018-09-30T04:26:04.864Z,0
2018-09-30T04:27:05.112Z,0
2018-09-30T04:28:05.089Z,0
2018-09-30T04:29:04.566Z,0
2018-09-30T04:30:05.064Z,0
2018-09-30T04:31:04.807Z,0
2018-09-30T04:32:04.532Z,0
2018-09-30T04:33:05.082Z,0
2018-09-30T04:34:04.749Z,0
2018-09-30T04:35:04.743Z,0
2018-09-30T04:36:04.980Z,0
2018-09-30T04:37:04.964Z,0
2018-09-30T04:38:04.712Z,0
2018-09-30T04:39:04.685Z,0
2018-09-30T04:40:04.421Z,0
2018-09-30T04:41:04.670Z,0
2018-09-30T04:42:04.646Z,0
2018-09-30T04:43:04.894Z,0
2018-09-30T04:44:04.620Z,0
2018-09-30T04:45:04.633Z,0
2018-09-30T04:46:04.602Z,0
2018-09-30T04:47:04.834Z,0
2018-09-30T04:48:04.824Z,0
2018-09-30T04:49:04.300Z,0
2018-09-30T04:50:04.884Z,0
2018-09-30T04:51:04.784Z,0
2018-09-30T04:52:04.543Z,5
2018-09-30T04:53:04.503Z,5
2018-09-30T04:54:04.484Z,5
2018-09-30T04:55:04.472Z,5
2018-09-30T04:56:04.206Z,5
2018-09-30T04:57:04.192Z,5
2018-09-30T04:58:04.456Z,5
2018-09-30T04:59:04.420Z,5
2018-09-30T05:00:04.409Z,5
2018-09-30T05:01:04.138Z,5
2018-09-30T05:02:04.375Z,5
2018-09-30T05:03:04.114Z,10
2018-09-30T05:04:04.604Z,10
2018-09-30T05:05:04.338Z,10
2018-09-30T05:06:04.242Z,10
2018-09-30T05:07:04.562Z,15
2018-09-30T05:08:04.305Z,15
2018-09-30T05:09:04.286Z,15
2018-09-30T05:10:03.766Z,20
2018-09-30T05:11:04.261Z,20
2018-09-30T05:12:03.744Z,20
2018-09-30T05:13:04.238Z,25
2018-09-30T05:14:03.966Z,25
2018-09-30T05:15:03.953Z,25
2018-09-30T05:16:04.504Z,30
2018-09-30T05:17:03.927Z,30
2018-09-30T05:18:04.174Z,30
2018-09-30T05:19:04.404Z,30
2018-09-30T05:20:04.140Z,35
2018-09-30T05:21:04.125Z,35
2018-09-30T05:22:04.375Z,40
2018-09-30T05:23:04.105Z,40
2018-09-30T05:24:04.084Z,40
2018-09-30T05:25:04.343Z,45
2018-09-30T05:26:04.325Z,45
2018-09-30T05:27:04.049Z,45
2018-09-30T05:28:04.046Z,45
2018-09-30T05:29:04.292Z,50
2018-09-30T05:30:04.265Z,55
2018-09-30T05:31:03.791Z,55
2018-09-30T05:32:03.987Z,60
2018-09-30T05:33:03.966Z,65
2018-09-30T05:34:04.210Z,65
2018-09-30T05:35:03.942Z,75
2018-09-30T05:36:03.929Z,75
2018-09-30T05:37:03.979Z,80
2018-09-30T05:38:03.906Z,90
2018-09-30T05:39:04.149Z,90
2018-09-30T05:40:03.878Z,95
2018-09-30T05:41:04.121Z,95
2018-09-30T05:42:03.600Z,105
2018-09-30T05:43:03.845Z,115
2018-09-30T05:44:04.088Z,120
2018-09-30T05:45:03.817Z,120
2018-09-30T05:46:03.803Z,130
2018-09-30T05:47:03.797Z,130
2018-09-30T05:48:03.889Z,135
2018-09-30T05:49:03.687Z,135
2018-09-30T05:50:03.759Z,135
2018-09-30T05:51:04.006Z,140
2018-09-30T05:52:03.736Z,130
2018-09-30T05:53:03.730Z,125
2018-09-30T05:54:03.458Z,130
2018-09-30T05:55:03.710Z,140
2018-09-30T05:56:03.699Z,145
2018-09-30T05:57:03.939Z,150
2018-09-30T05:58:04.182Z,155
2018-09-30T05:59:03.918Z,160
2018-09-30T06:00:03.904Z,150
2018-09-30T06:01:03.671Z,140
2018-09-30T06:02:03.885Z,135
2018-09-30T06:03:03.873Z,135
2018-09-30T06:04:05.224Z,140
2018-09-30T06:05:03.858Z,155
2018-09-30T06:06:03.594Z,190
2018-09-30T06:07:03.585Z,205
2018-09-30T06:08:03.827Z,225
2018-09-30T06:09:04.280Z,235
2018-09-30T06:10:03.567Z,240
2018-09-30T06:11:03.799Z,245
2018-09-30T06:12:03.785Z,255
2018-09-30T06:13:03.018Z,255
2018-09-30T06:14:03.711Z,255
2018-09-30T06:15:03.510Z,250
2018-09-30T06:16:03.945Z,255
2018-09-30T06:17:03.245Z,250
2018-09-30T06:18:03.743Z,275
2018-09-30T06:19:03.729Z,285
2018-09-30T06:20:03.719Z,265
2018-09-30T06:21:03.717Z,280
2018-09-30T06:22:03.709Z,305
2018-09-30T06:23:03.444Z,310
2018-09-30T06:24:03.589Z,315
2018-09-30T06:25:03.674Z,320
2018-09-30T06:26:03.678Z,330
2018-09-30T06:27:03.668Z,335
2018-09-30T06:28:03.408Z,340
2018-09-30T06:29:03.657Z,350
2018-09-30T06:30:03.148Z,355
2018-09-30T06:31:03.637Z,365
2018-09-30T06:32:03.663Z,365
2018-09-30T06:33:03.125Z,375
2018-09-30T06:34:03.368Z,385
2018-09-30T06:35:03.619Z,395
2018-09-30T06:36:03.360Z,405
2018-09-30T06:37:03.114Z,420
2018-09-30T06:38:03.348Z,385
2018-09-30T06:39:03.340Z,385
2018-09-30T06:40:03.342Z,350
2018-09-30T06:41:03.334Z,445
2018-09-30T06:42:03.585Z,450
2018-09-30T06:43:03.347Z,455
2018-09-30T06:44:03.064Z,450
2018-09-30T06:45:03.735Z,460
2018-09-30T06:46:03.569Z,470
2018-09-30T06:47:03.597Z,500
2018-09-30T06:48:03.312Z,580
2018-09-30T06:49:03.055Z,615
2018-09-30T06:50:03.300Z,645
2018-09-30T06:51:03.697Z,655
2018-09-30T06:52:03.541Z,665
2018-09-30T06:53:03.026Z,670
2018-09-30T06:54:03.541Z,675
2018-09-30T06:55:03.288Z,675
2018-09-30T06:56:03.525Z,695
2018-09-30T06:57:03.519Z,720
2018-09-30T06:58:03.520Z,735
2018-09-30T06:59:03.523Z,760
2018-09-30T07:00:03.261Z,760
2018-09-30T07:01:03.010Z,770
2018-09-30T07:02:02.749Z,780
2018-09-30T07:03:03.247Z,800
2018-09-30T07:04:03.258Z,810
2018-09-30T07:05:04.138Z,815
2018-09-30T07:06:03.244Z,820
2018-09-30T07:07:02.992Z,830
2018-09-30T07:08:02.987Z,835
2018-09-30T07:09:03.244Z,855
2018-09-30T07:10:02.986Z,845
2018-09-30T07:11:03.426Z,820
2018-09-30T07:12:03.239Z,820
2018-09-30T07:13:02.987Z,825
2018-09-30T07:14:03.237Z,765
2018-09-30T07:15:03.493Z,635
2018-09-30T07:16:03.499Z,590
2018-09-30T07:17:03.728Z,600
2018-09-30T07:18:03.497Z,610
2018-09-30T07:19:03.230Z,610
2018-09-30T07:20:03.233Z,615
2018-09-30T07:21:03.232Z,615
2018-09-30T07:22:03.483Z,615
2018-09-30T07:23:03.488Z,630
2018-09-30T07:24:03.228Z,635
2018-09-30T07:25:03.477Z,645
2018-09-30T07:26:03.296Z,650
2018-09-30T07:27:03.229Z,655
2018-09-30T07:28:02.972Z,665
2018-09-30T07:29:03.474Z,670
2018-09-30T07:30:03.476Z,680
2018-09-30T07:31:03.222Z,690
2018-09-30T07:32:03.242Z,700
2018-09-30T07:33:03.233Z,700
2018-09-30T07:34:03.630Z,690
2018-09-30T07:35:02.973Z,710
2018-09-30T07:36:03.219Z,715
2018-09-30T07:37:03.473Z,715
2018-09-30T07:38:03.222Z,720
2018-09-30T07:39:03.484Z,720
2018-09-30T07:40:03.486Z,730
2018-09-30T07:41:03.223Z,745
2018-09-30T07:42:03.222Z,750
2018-09-30T07:43:03.262Z,760
2018-09-30T07:44:03.214Z,780
2018-09-30T07:45:03.223Z,785
2018-09-30T07:46:02.966Z,750
2018-09-30T07:47:03.156Z,470
2018-09-30T07:48:03.227Z,230
2018-09-30T07:49:02.958Z,175
2018-09-30T07:50:02.961Z,170
2018-09-30T07:51:03.463Z,165
2018-09-30T07:52:03.207Z,165
2018-09-30T07:53:03.459Z,160
2018-09-30T07:54:03.208Z,160
2018-09-30T07:55:02.955Z,160
2018-09-30T07:56:03.454Z,160
2018-09-30T07:57:03.203Z,165
2018-09-30T07:58:02.952Z,165
2018-09-30T07:59:02.942Z,165
2018-09-30T08:00:03.437Z,165
2018-09-30T08:01:03.190Z,165
2018-09-30T08:02:03.223Z,165
2018-09-30T08:03:03.179Z,165
2018-09-30T08:04:03.175Z,165
2018-09-30T08:05:03.174Z,165
2018-09-30T08:06:03.417Z,160
2018-09-30T08:07:03.414Z,160
2018-09-30T08:08:03.155Z,160
2018-09-30T08:09:02.910Z,160
2018-09-30T08:10:02.899Z,160
2018-09-30T08:11:03.145Z,160
2018-09-30T08:12:02.885Z,160
2018-09-30T08:13:03.385Z,160
2018-09-30T08:14:03.382Z,160
2018-09-30T08:15:03.129Z,160
2018-09-30T08:16:03.120Z,160
2018-09-30T08:17:04.012Z,165
2018-09-30T08:18:03.114Z,160
2018-09-30T08:19:03.353Z,160
2018-09-30T08:20:03.095Z,160
2018-09-30T08:21:03.089Z,160
2018-09-30T08:22:03.094Z,160
2018-09-30T08:23:03.076Z,160
2018-09-30T08:24:03.299Z,160
2018-09-30T08:25:02.816Z,160
2018-09-30T08:26:03.323Z,160
2018-09-30T08:27:03.051Z,160
2018-09-30T08:28:03.049Z,160
2018-09-30T08:29:02.796Z,160
2018-09-30T08:30:03.034Z,160
2018-09-30T08:31:03.359Z,160
2018-09-30T08:32:03.275Z,165
2018-09-30T08:33:03.273Z,165
2018-09-30T08:34:02.766Z,165
2018-09-30T08:35:02.755Z,165
2018-09-30T08:36:02.758Z,165
2018-09-30T08:37:02.994Z,165
2018-09-30T08:38:03.240Z,165
2018-09-30T08:39:02.978Z,160
2018-09-30T08:40:03.789Z,160
2018-09-30T08:41:03.227Z,160
2018-09-30T08:42:03.209Z,160
2018-09-30T08:43:03.216Z,160
2018-09-30T08:44:03.824Z,165
2018-09-30T08:45:03.200Z,165
2018-09-30T08:46:03.148Z,165
2018-09-30T08:47:03.379Z,165
2018-09-30T08:48:03.176Z,165
2018-09-30T08:49:03.185Z,160
2018-09-30T08:50:03.174Z,160
2018-09-30T08:51:02.905Z,160
2018-09-30T08:52:03.152Z,160
2018-09-30T08:53:02.641Z,160
2018-09-30T08:54:03.580Z,160
2018-09-30T08:55:02.884Z,160
2018-09-30T08:56:03.419Z,160
2018-09-30T08:57:03.129Z,160
2018-09-30T08:58:02.879Z,160
2018-09-30T08:59:03.106Z,160
2018-09-30T09:00:02.594Z,160
2018-09-30T09:01:03.095Z,160
2018-09-30T09:02:03.090Z,160
2018-09-30T09:03:03.082Z,160
2018-09-30T09:04:02.824Z,160
2018-09-30T09:05:03.076Z,160
2018-09-30T09:06:02.831Z,160
2018-09-30T09:07:02.807Z,160
2018-09-30T09:08:03.058Z,160
2018-09-30T09:09:02.804Z,160
2018-09-30T09:10:03.602Z,160
2018-09-30T09:11:02.788Z,160
2018-09-30T09:12:02.778Z,160
2018-09-30T09:13:02.516Z,160
2018-09-30T09:14:03.018Z,165
2018-09-30T09:15:03.005Z,165
2018-09-30T09:16:03.016Z,165
2018-09-30T09:17:03.001Z,165
2018-09-30T09:18:02.747Z,165
2018-09-30T09:19:02.993Z,160
2018-09-30T09:20:02.726Z,165
2018-09-30T09:21:02.722Z,160
2018-09-30T09:22:02.467Z,160
2018-09-30T09:23:03.110Z,165
2018-09-30T09:24:02.707Z,165
2018-09-30T09:25:02.950Z,170
2018-09-30T09:26:02.695Z,175
2018-09-30T09:27:02.938Z,175
2018-09-30T09:28:03.145Z,175
2018-09-30T09:29:02.678Z,175
2018-09-30T09:30:02.936Z,170
2018-09-30T09:31:02.661Z,165
2018-09-30T09:32:02.913Z,165
2018-09-30T09:33:03.283Z,160
2018-09-30T09:34:02.647Z,160
2018-09-30T09:35:02.517Z,160
2018-09-30T09:36:02.892Z,160
2018-09-30T09:37:02.879Z,160
2018-09-30T09:38:02.622Z,160
2018-09-30T09:39:02.882Z,155
2018-09-30T09:40:02.613Z,155
2018-09-30T09:41:02.354Z,155
2018-09-30T09:42:02.602Z,155
2018-09-30T09:43:02.851Z,155
2018-09-30T09:44:02.845Z,155
2018-09-30T09:45:02.834Z,155
2018-09-30T09:46:02.623Z,155
2018-09-30T09:47:03.035Z,155
2018-09-30T09:48:02.316Z,155
2018-09-30T09:49:02.819Z,155
2018-09-30T09:50:02.812Z,155
2018-09-30T09:51:02.554Z,155
2018-09-30T09:52:02.798Z,155
2018-09-30T09:53:02.802Z,155
2018-09-30T09:54:02.280Z,155
2018-09-30T09:55:02.533Z,155
2018-09-30T09:56:02.781Z,155
2018-09-30T09:57:02.772Z,155
2018-09-30T09:58:02.763Z,155
2018-09-30T09:59:03.237Z,155
2018-09-30T10:00:02.755Z,155
2018-09-30T10:01:02.493Z,155
2018-09-30T10:02:02.741Z,150
2018-09-30T10:03:02.486Z,150
2018-09-30T10:04:02.476Z,150
2018-09-30T10:05:02.673Z,150
2018-09-30T10:06:02.466Z,150
2018-09-30T10:07:02.463Z,150
2018-09-30T10:08:02.253Z,150
2018-09-30T10:09:02.709Z,150
2018-09-30T10:10:02.449Z,150
2018-09-30T10:11:02.689Z,150
2018-09-30T10:12:02.439Z,150
2018-09-30T10:13:02.923Z,150
2018-09-30T10:14:02.430Z,150
2018-09-30T10:15:02.425Z,150
2018-09-30T10:16:02.672Z,150
2018-09-30T10:17:02.681Z,150
2018-09-30T10:18:02.402Z,150
2018-09-30T10:19:02.647Z,150
2018-09-30T10:20:02.149Z,150
2018-09-30T10:21:02.385Z,150
2018-09-30T10:22:02.633Z,150
2018-09-30T10:23:02.624Z,150
2018-09-30T10:24:02.376Z,150
2018-09-30T10:25:02.616Z,150
2018-09-30T10:26:03.180Z,150
2018-09-30T10:27:02.353Z,150
2018-09-30T10:28:02.368Z,150
2018-09-30T10:29:02.092Z,150
2018-09-30T10:30:02.086Z,150
2018-09-30T10:31:02.079Z,150
2018-09-30T10:32:02.585Z,150
2018-09-30T10:33:02.573Z,150
2018-09-30T10:34:02.065Z,150
2018-09-30T10:35:02.332Z,150
2018-09-30T10:36:02.305Z,145
2018-09-30T10:37:02.050Z,145
2018-09-30T10:38:02.548Z,145
2018-09-30T10:39:02.183Z,145
2018-09-30T10:40:02.289Z,145
2018-09-30T10:41:02.028Z,145
2018-09-30T10:42:02.536Z,145
2018-09-30T10:43:02.264Z,145
2018-09-30T10:44:02.262Z,145
2018-09-30T10:45:02.255Z,145
2018-09-30T10:46:02.250Z,145
2018-09-30T10:47:02.268Z,145
2018-09-30T10:48:02.494Z,145
2018-09-30T10:49:02.234Z,145
2018-09-30T10:50:02.229Z,145
2018-09-30T10:51:02.228Z,145
2018-09-30T10:52:02.479Z,145
2018-09-30T10:53:02.468Z,145
2018-09-30T10:54:02.227Z,145
2018-09-30T10:55:02.207Z,145
2018-09-30T10:56:01.945Z,145
2018-09-30T10:57:02.899Z,145
2018-09-30T10:58:02.447Z,145
2018-09-30T10:59:01.934Z,145
2018-09-30T11:00:02.438Z,145
2018-09-30T11:01:02.426Z,145
2018-09-30T11:02:02.421Z,145
2018-09-30T11:03:02.419Z,145
2018-09-30T11:04:02.411Z,145
2018-09-30T11:05:02.154Z,145
2018-09-30T11:06:02.402Z,145
2018-09-30T11:07:02.147Z,145
2018-09-30T11:08:02.142Z,145
2018-09-30T11:09:02.130Z,145
2018-09-30T11:10:02.155Z,145
2018-09-30T11:11:02.172Z,145
2018-09-30T11:12:02.369Z,145
2018-09-30T11:13:02.109Z,145
2018-09-30T11:14:02.115Z,140
2018-09-30T11:15:02.370Z,140
2018-09-30T11:16:02.538Z,140
2018-09-30T11:17:02.101Z,140
2018-09-30T11:18:02.087Z,140
2018-09-30T11:19:02.090Z,140
2018-09-30T11:20:01.825Z,140
2018-09-30T11:21:02.069Z,140
2018-09-30T11:22:02.069Z,140
2018-09-30T11:23:02.063Z,140
2018-09-30T11:24:01.804Z,140
2018-09-30T11:25:02.312Z,140
2018-09-30T11:26:01.798Z,140
2018-09-30T11:27:02.295Z,140
2018-09-30T11:28:01.794Z,140
2018-09-30T11:29:02.289Z,140
2018-09-30T11:30:01.778Z,140
2018-09-30T11:31:01.772Z,140
2018-09-30T11:32:02.481Z,140
2018-09-30T11:33:02.281Z,140
2018-09-30T11:34:01.757Z,140
2018-09-30T11:35:01.748Z,140
2018-09-30T11:36:02.245Z,140
2018-09-30T11:37:01.988Z,140
2018-09-30T11:38:01.734Z,140
2018-09-30T11:39:02.234Z,140
2018-09-30T11:40:01.975Z,140
2018-09-30T11:41:01.970Z,140
2018-09-30T11:42:01.973Z,140
2018-09-30T11:43:01.708Z,140
2018-09-30T11:44:01.964Z,140
2018-09-30T11:45:02.214Z,140
2018-09-30T11:46:01.944Z,140
2018-09-30T11:47:01.691Z,140
2018-09-30T11:48:01.682Z,140
2018-09-30T11:49:02.188Z,140
2018-09-30T11:50:01.924Z,140
2018-09-30T11:51:01.669Z,140
2018-09-30T11:52:01.925Z,140
2018-09-30T11:53:01.914Z,140
2018-09-30T11:54:01.659Z,140
2018-09-30T11:55:01.901Z,140
2018-09-30T11:56:02.152Z,135
2018-09-30T11:57:01.890Z,135
2018-09-30T11:58:01.892Z,135
2018-09-30T11:59:01.633Z,135
2018-09-30T12:00:02.132Z,135
2018-09-30T12:01:01.936Z,135
2018-09-30T12:02:01.866Z,135
2018-09-30T12:03:02.127Z,135
2018-09-30T12:04:01.857Z,135
2018-09-30T12:05:02.123Z,135
2018-09-30T12:06:02.102Z,135
2018-09-30T12:07:02.095Z,135
2018-09-30T12:08:01.837Z,135
2018-09-30T12:09:02.093Z,135
2018-09-30T12:10:01.833Z,135
2018-09-30T12:11:02.082Z,135
2018-09-30T12:12:01.820Z,135
2018-09-30T12:13:02.072Z,135
2018-09-30T12:14:01.810Z,135
2018-09-30T12:15:02.053Z,135
2018-09-30T12:16:02.050Z,135
2018-09-30T12:17:02.044Z,135
2018-09-30T12:18:02.057Z,135
2018-09-30T12:19:02.037Z,135
2018-09-30T12:20:02.035Z,135
2018-09-30T12:21:02.030Z,135
2018-09-30T12:22:01.775Z,135
2018-09-30T12:23:01.763Z,135
2018-09-30T12:24:01.764Z,135
2018-09-30T12:25:02.005Z,135
2018-09-30T12:26:02.114Z,135
2018-09-30T12:27:02.013Z,135
2018-09-30T12:28:01.993Z,135
2018-09-30T12:29:01.736Z,135
2018-09-30T12:30:01.987Z,135
2018-09-30T12:31:01.731Z,135
2018-09-30T12:32:01.733Z,135
2018-09-30T12:33:01.974Z,135
2018-09-30T12:34:01.462Z,135
2018-09-30T12:35:01.458Z,135
2018-09-30T12:36:01.964Z,135
2018-09-30T12:37:01.965Z,135
2018-09-30T12:38:01.946Z,135
2018-09-30T12:39:01.448Z,135
2018-09-30T12:40:01.938Z,135
2018-09-30T12:41:01.974Z,135
2018-09-30T12:42:01.927Z,135
2018-09-30T12:43:01.414Z,135
2018-09-30T12:44:01.917Z,135
2018-09-30T12:45:01.670Z,135
2018-09-30T12:46:01.405Z,135
2018-09-30T12:47:01.667Z,135
2018-09-30T12:48:01.895Z,135
2018-09-30T12:49:01.892Z,130
2018-09-30T12:50:01.635Z,130
2018-09-30T12:51:01.887Z,130
2018-09-30T12:52:01.375Z,130
2018-09-30T12:53:01.623Z,130
2018-09-30T12:54:01.621Z,130
2018-09-30T12:55:01.879Z,130
2018-09-30T12:56:01.858Z,130
2018-09-30T12:57:01.604Z,130
2018-09-30T12:58:02.182Z,130
2018-09-30T12:59:01.639Z,130
2018-09-30T13:00:01.596Z,130
2018-09-30T13:01:01.841Z,130
2018-09-30T13:02:01.834Z,130
2018-09-30T13:03:01.827Z,130
2018-09-30T13:04:01.321Z,130
2018-09-30T13:05:01.816Z,130
2018-09-30T13:06:01.746Z,130
2018-09-30T13:07:01.806Z,130
2018-09-30T13:08:01.570Z,130
2018-09-30T13:09:01.559Z,130
2018-09-30T13:10:01.292Z,130
2018-09-30T13:11:01.292Z,130
2018-09-30T13:12:01.297Z,130
2018-09-30T13:13:01.781Z,130
2018-09-30T13:14:01.770Z,130
2018-09-30T13:15:01.816Z,130
2018-09-30T13:16:01.512Z,130
2018-09-30T13:17:01.764Z,130
2018-09-30T13:18:01.756Z,130
2018-09-30T13:19:02.022Z,130
2018-09-30T13:20:01.746Z,130
2018-09-30T13:21:02.247Z,130
2018-09-30T13:22:01.738Z,130
2018-09-30T13:23:01.734Z,130
2018-09-30T13:24:01.739Z,130
2018-09-30T13:25:01.725Z,130
2018-09-30T13:26:01.717Z,130
2018-09-30T13:27:01.461Z,130
2018-09-30T13:28:01.715Z,130
2018-09-30T13:29:01.449Z,130
2018-09-30T13:30:01.703Z,130
2018-09-30T13:31:01.693Z,130
2018-09-30T13:32:01.438Z,130
2018-09-30T13:33:00.931Z,130
2018-09-30T13:34:01.432Z,130
2018-09-30T13:35:01.681Z,130
2018-09-30T13:36:01.428Z,125
2018-09-30T13:37:01.412Z,125
2018-09-30T13:38:01.666Z,125
2018-09-30T13:39:01.656Z,125
2018-09-30T13:40:01.859Z,125
2018-09-30T13:41:02.850Z,125
2018-09-30T13:42:01.645Z,125
2018-09-30T13:43:01.133Z,125
2018-09-30T13:44:01.379Z,125
2018-09-30T13:45:01.375Z,125
2018-09-30T13:46:01.752Z,125
2018-09-30T13:47:01.617Z,125
2018-09-30T13:48:01.613Z,125
2018-09-30T13:49:00.598Z,125
2018-09-30T13:50:01.608Z,125
2018-09-30T13:51:01.604Z,125
2018-09-30T13:52:01.342Z,125
2018-09-30T13:53:01.334Z,125
2018-09-30T13:54:01.334Z,125
2018-09-30T13:55:01.356Z,125
2018-09-30T13:56:01.577Z,125
2018-09-30T13:57:01.573Z,125
2018-09-30T13:58:01.560Z,125
2018-09-30T13:59:01.569Z,125
2018-09-30T14:00:01.563Z,125
2018-09-30T14:01:01.049Z,125
2018-09-30T14:02:01.301Z,125
2018-09-30T14:03:01.543Z,125
2018-09-30T14:04:01.280Z,125
2018-09-30T14:05:01.574Z,125
2018-09-30T14:06:01.528Z,120
2018-09-30T14:07:01.865Z,120
2018-09-30T14:08:01.530Z,120